This is the latest recevied weather packets stored in our database for station/object EA4HRG-10. If no packets are shown the sender has not sent any weather packets the latest 10 day(s).
| Time | Temp. | Humidity | Pressure | Rain* | Wind** | Luminosity | Snow |
|---|---|---|---|---|---|---|---|
| 1777294759 | 30° C | 17% | 1012.5 hPa | - | - | - | - |
| 1777293859 | 28.33° C | 17% | 1013.1 hPa | - | - | - | - |
| 1777292959 | 28.89° C | 17% | 1013 hPa | - | - | - | - |
| 1777291159 | 27.78° C | 18% | 1013.7 hPa | - | - | - | - |
| 1777290259 | 26.67° C | 18% | 1014.2 hPa | - | - | - | - |
| 1777289359 | 26.67° C | 20% | 1014.4 hPa | - | - | - | - |
| 1777288459 | 26.11° C | 21% | 1014.9 hPa | - | - | - | - |
| 1777286659 | 25° C | 25% | 1015.4 hPa | - | - | - | - |
| 1777284859 | 23.89° C | 28% | 1016.4 hPa | - | - | - | - |
| 1777283059 | 21.67° C | 31% | 1017.3 hPa | - | - | - | - |
| 1777281259 | 18.33° C | 39% | 1018.6 hPa | - | - | - | - |
| 1777280359 | 17.22° C | 49% | 1019.2 hPa | - | - | - | - |
| 1777279459 | 16.11° C | 58% | 1019.7 hPa | - | - | - | - |
| 1777278566 | 15° C | 58% | 1020.1 hPa | - | - | - | - |
| 1777277659 | 13.33° C | 75% | 1020.8 hPa | - | - | - | - |
| 1777276759 | 12.22° C | 83% | 1021.5 hPa | - | - | - | - |
| 1777275859 | 11.11° C | 87% | 1021.9 hPa | - | - | - | - |
| 1777274059 | 10.56° C | 85% | 1022.3 hPa | - | - | - | - |
| 1777273159 | 11.11° C | 74% | 1022.1 hPa | - | - | - | - |
| 1777272259 | 13.33° C | 60% | 1021.4 hPa | - | - | - | - |
| 1777271359 | 12.22° C | 74% | 1021.8 hPa | - | - | - | - |
| 1777269559 | 5° C | 100% | 1024.3 hPa | - | - | - | - |
| 1777268659 | 5° C | 100% | 1024.3 hPa | - | - | - | - |
| 1777266859 | 5° C | 100% | 1024.2 hPa | - | - | - | - |
| 1777265059 | 5.56° C | 100% | 1023.8 hPa | - | - | - | - |
* Rain since midnight (hover to see other rain measurements)
** Current wind speed in m/s (hover to see current wind gust speed)